createdAt,value
2022-12-18T00:00:06.298Z,98215.55
2022-12-18T00:02:34.476Z,98219.52
2022-12-18T00:05:02.402Z,98217.46
2022-12-18T00:07:30.331Z,98221.60
2022-12-18T00:09:58.173Z,98226.98
2022-12-18T00:12:26.133Z,98232.38
2022-12-18T00:14:54.006Z,98238.55
2022-12-18T00:17:22.013Z,98242.49
2022-12-18T00:19:49.974Z,98248.39
2022-12-18T00:22:19.634Z,98253.64
2022-12-18T00:24:47.580Z,98257.54
2022-12-18T00:27:15.530Z,98257.13
2022-12-18T00:29:43.517Z,98263.63
2022-12-18T00:32:11.414Z,98261.56
2022-12-18T00:34:39.244Z,98261.13
2022-12-18T00:37:07.084Z,98263.63
2022-12-18T00:39:34.929Z,98264.36
2022-12-18T00:42:21.559Z,98264.69
2022-12-18T00:44:49.554Z,98270.53
2022-12-18T00:47:17.594Z,98275.28
2022-12-18T00:49:45.484Z,98281.78
2022-12-18T00:52:13.500Z,98281.14
2022-12-18T00:54:41.330Z,98283.77
2022-12-18T00:57:09.237Z,98284.61
2022-12-18T00:59:37.073Z,98285.52
2022-12-18T01:02:04.994Z,98284.77
2022-12-18T01:04:34.241Z,98287.44
2022-12-18T01:07:02.238Z,98290.46
2022-12-18T01:09:30.123Z,98291.72
2022-12-18T01:11:58.051Z,98292.41
2022-12-18T01:14:26.456Z,98294.06
2022-12-18T01:16:54.375Z,98293.01
2022-12-18T01:19:22.369Z,98289.43
2022-12-18T01:21:50.591Z,98288.60
2022-12-18T01:24:18.451Z,98287.02
2022-12-18T01:26:46.659Z,98288.63
2022-12-18T01:29:14.665Z,98287.64
2022-12-18T01:31:42.621Z,98288.80
2022-12-18T01:34:11.300Z,98291.86
2022-12-18T01:36:42.510Z,98295.85
2022-12-18T01:39:15.863Z,98296.05
2022-12-18T01:42:04.189Z,98295.91
2022-12-18T01:45:06.701Z,98292.30
2022-12-18T01:48:06.469Z,98293.62
2022-12-18T01:50:40.434Z,98295.25
2022-12-18T01:53:11.565Z,98293.88
2022-12-18T01:55:48.027Z,98297.48
2022-12-18T01:58:17.155Z,98301.92
2022-12-18T02:00:45.970Z,98300.90
2022-12-18T02:03:14.234Z,98301.33
2022-12-18T02:06:05.409Z,98303.10
2022-12-18T02:08:59.119Z,98309.67
2022-12-18T02:11:36.721Z,98311.61
2022-12-18T02:14:37.272Z,98312.14
2022-12-18T02:17:12.788Z,98313.63
2022-12-18T02:20:01.306Z,98318.98
2022-12-18T02:22:36.075Z,98329.66
2022-12-18T02:25:07.667Z,98333.44
2022-12-18T02:27:38.321Z,98335.33
2022-12-18T02:30:08.588Z,98336.27
2022-12-18T02:32:42.702Z,98337.77
2022-12-18T02:35:17.806Z,98339.06
2022-12-18T02:37:48.056Z,98339.96
2022-12-18T02:40:18.344Z,98341.34
2022-12-18T02:42:46.221Z,98345.83
2022-12-18T02:45:14.858Z,98354.08
2022-12-18T02:47:46.964Z,98356.04
2022-12-18T02:50:25.632Z,98361.00
2022-12-18T02:52:56.540Z,98367.02
2022-12-18T02:55:48.430Z,98372.47
2022-12-18T02:58:42.731Z,98379.08
2022-12-18T03:01:29.475Z,98386.49
2022-12-18T03:04:25.268Z,98392.73
2022-12-18T03:06:57.453Z,98396.39
2022-12-18T03:09:39.720Z,98402.48
2022-12-18T03:12:25.189Z,98406.48
2022-12-18T03:15:02.639Z,98409.45
2022-12-18T03:17:33.423Z,98412.56
2022-12-18T03:20:11.164Z,98419.44
2022-12-18T03:22:40.169Z,98421.02
2022-12-18T03:25:14.285Z,98422.65
2022-12-18T03:27:49.122Z,98426.59
2022-12-18T03:30:18.696Z,98428.04
2022-12-18T03:33:07.001Z,98434.39
2022-12-18T03:35:40.816Z,98444.69
2022-12-18T03:38:08.852Z,98448.44
2022-12-18T03:40:49.897Z,98454.23
2022-12-18T03:43:52.044Z,98459.45
2022-12-18T03:46:49.672Z,98462.89
2022-12-18T03:49:29.993Z,98469.11
2022-12-18T03:52:10.062Z,98475.86
2022-12-18T03:54:41.928Z,98481.04
2022-12-18T03:57:16.045Z,98485.89
2022-12-18T03:59:46.777Z,98484.77
2022-12-18T04:02:18.075Z,98486.34
2022-12-18T04:04:47.892Z,98488.94
2022-12-18T04:07:17.282Z,98491.00
2022-12-18T04:09:46.830Z,98491.91
2022-12-18T04:12:14.722Z,98494.35
2022-12-18T04:14:42.526Z,98500.33
2022-12-18T04:17:10.373Z,98507.68
2022-12-18T04:19:38.306Z,98509.90
2022-12-18T04:22:06.154Z,98511.67
2022-12-18T04:24:33.987Z,98516.95
2022-12-18T04:27:01.804Z,98522.25
2022-12-18T04:29:29.760Z,98529.61
2022-12-18T04:31:58.302Z,98531.19
2022-12-18T04:34:26.206Z,98531.91
2022-12-18T04:36:54.096Z,98532.84
2022-12-18T04:39:21.912Z,98534.77
2022-12-18T04:41:49.836Z,98537.98
2022-12-18T04:44:17.645Z,98539.02
2022-12-18T04:46:45.651Z,98538.52
2022-12-18T04:49:13.654Z,98541.09
2022-12-18T04:51:41.504Z,98540.52
2022-12-18T04:54:09.318Z,98546.67
2022-12-18T04:56:37.144Z,98545.77
2022-12-18T04:59:05.829Z,98550.89
2022-12-18T05:01:35.368Z,98554.84
2022-12-18T05:04:04.073Z,98564.18
2022-12-18T05:06:32.171Z,98567.07
2022-12-18T05:08:59.942Z,98565.81
2022-12-18T05:11:27.786Z,98567.89
2022-12-18T05:13:58.583Z,98564.61
2022-12-18T05:16:26.522Z,98566.95
2022-12-18T05:18:54.550Z,98573.86
2022-12-18T05:21:22.399Z,98580.21
2022-12-18T05:23:50.236Z,98582.79
2022-12-18T05:26:19.530Z,98589.39
2022-12-18T05:28:47.751Z,98595.17
2022-12-18T05:31:16.130Z,98594.77
2022-12-18T05:33:44.630Z,98596.51
2022-12-18T05:36:12.772Z,98604.40
2022-12-18T05:38:41.543Z,98603.33
2022-12-18T05:41:10.490Z,98605.09
2022-12-18T05:43:40.698Z,98607.57
2022-12-18T05:46:12.771Z,98613.91
2022-12-18T05:48:41.698Z,98623.11
2022-12-18T05:51:12.920Z,98630.32
2022-12-18T05:53:41.637Z,98635.12
2022-12-18T05:56:15.858Z,98640.45
2022-12-18T05:58:44.875Z,98636.74
2022-12-18T06:01:16.642Z,98640.51
2022-12-18T06:03:45.870Z,98642.81
2022-12-18T06:06:17.370Z,98647.02
2022-12-18T06:08:46.743Z,98651.01
2022-12-18T06:11:19.157Z,98656.21
2022-12-18T06:13:53.581Z,98664.45
2022-12-18T06:16:25.904Z,98665.13
2022-12-18T06:18:54.105Z,98668.47
2022-12-18T06:21:21.910Z,98673.45
2022-12-18T06:23:49.736Z,98681.34
2022-12-18T06:26:17.712Z,98691.17
2022-12-18T06:28:45.595Z,98693.75
2022-12-18T06:31:13.842Z,98693.94
2022-12-18T06:33:42.764Z,98695.23
2022-12-18T06:36:13.711Z,98698.55
2022-12-18T06:38:43.699Z,98705.66
2022-12-18T06:41:19.879Z,98714.77
2022-12-18T06:43:47.881Z,98719.52
2022-12-18T06:46:15.973Z,98727.08
2022-12-18T06:48:43.892Z,98732.86
2022-12-18T06:51:14.044Z,98740.02
2022-12-18T06:53:45.258Z,98744.80
2022-12-18T06:56:13.210Z,98744.09
2022-12-18T06:58:42.875Z,98745.41
2022-12-18T07:01:13.077Z,98749.77
2022-12-18T07:03:43.364Z,98748.91
2022-12-18T07:06:17.064Z,98754.02
2022-12-18T07:08:46.362Z,98756.67
2022-12-18T07:11:15.454Z,98763.16
2022-12-18T07:13:45.912Z,98768.11
2022-12-18T07:16:22.588Z,98772.35
2022-12-18T07:18:57.691Z,98778.61
2022-12-18T07:21:26.522Z,98778.40
2022-12-18T07:23:55.106Z,98777.34
2022-12-18T07:26:23.662Z,98780.23
2022-12-18T07:28:51.686Z,98785.59
2022-12-18T07:31:23.512Z,98787.80
2022-12-18T07:33:54.337Z,98789.48
2022-12-18T07:36:26.019Z,98796.31
2022-12-18T07:38:54.088Z,98799.09
2022-12-18T07:41:24.672Z,98800.64
2022-12-18T07:43:52.696Z,98802.14
2022-12-18T07:46:20.796Z,98805.94
2022-12-18T07:48:49.983Z,98812.73
2022-12-18T07:51:19.757Z,98815.73
2022-12-18T07:53:51.788Z,98817.27
2022-12-18T07:56:30.565Z,98815.20
2022-12-18T07:59:00.329Z,98821.79
2022-12-18T08:01:30.848Z,98828.39
2022-12-18T08:03:59.636Z,98831.89
2022-12-18T08:06:27.619Z,98831.30
2022-12-18T08:08:56.990Z,98834.94
2022-12-18T08:11:27.805Z,98837.32
2022-12-18T08:13:56.795Z,98841.77
2022-12-18T08:16:25.617Z,98845.23
2022-12-18T08:18:54.488Z,98851.36
2022-12-18T08:21:29.674Z,98861.08
2022-12-18T08:23:59.960Z,98859.63
2022-12-18T08:26:30.631Z,98860.58
2022-12-18T08:28:59.740Z,98860.85
2022-12-18T08:31:29.393Z,98862.24
2022-12-18T08:33:58.333Z,98866.86
2022-12-18T08:36:26.472Z,98873.04
2022-12-18T08:38:56.183Z,98872.14
2022-12-18T08:41:24.513Z,98873.39
2022-12-18T08:44:10.917Z,98874.15
2022-12-18T08:46:41.622Z,98875.87
2022-12-18T08:49:10.936Z,98871.20
2022-12-18T08:51:40.082Z,98866.77
2022-12-18T08:54:17.080Z,98872.08
2022-12-18T08:56:44.960Z,98872.72
2022-12-18T08:59:19.575Z,98873.27
2022-12-18T09:01:48.525Z,98879.80
2022-12-18T09:04:17.184Z,98883.41
2022-12-18T09:06:45.172Z,98883.48
2022-12-18T09:09:13.648Z,98884.36
2022-12-18T09:11:41.825Z,98884.03
2022-12-18T09:14:10.697Z,98885.41
2022-12-18T09:16:38.834Z,98886.38
2022-12-18T09:19:06.902Z,98884.83
2022-12-18T09:21:42.264Z,98889.65
2022-12-18T09:24:15.812Z,98890.41
2022-12-18T09:26:47.349Z,98894.15
2022-12-18T09:29:18.814Z,98892.66
2022-12-18T09:31:47.723Z,98894.56
2022-12-18T09:34:15.978Z,98896.61
2022-12-18T09:36:44.038Z,98901.38
2022-12-18T09:39:11.982Z,98902.45
2022-12-18T09:41:56.900Z,98901.55
2022-12-18T09:44:24.810Z,98898.59
2022-12-18T09:47:11.612Z,98898.75
2022-12-18T09:49:44.918Z,98896.68
2022-12-18T09:52:18.325Z,98897.61
2022-12-18T09:54:53.363Z,98901.60
2022-12-18T09:57:24.314Z,98897.66
2022-12-18T10:00:12.612Z,98896.09
2022-12-18T10:02:40.841Z,98894.05
2022-12-18T10:05:16.880Z,98894.54
2022-12-18T10:08:14.573Z,98897.02
2022-12-18T10:11:04.566Z,98899.12
2022-12-18T10:13:43.254Z,98899.77
2022-12-18T10:16:16.379Z,98903.95
2022-12-18T10:19:16.872Z,98906.91
2022-12-18T10:22:03.709Z,98908.19
2022-12-18T10:24:54.988Z,98905.29
2022-12-18T10:27:27.348Z,98908.77
2022-12-18T10:29:55.668Z,98905.20
2022-12-18T10:32:29.053Z,98902.77
2022-12-18T10:35:00.661Z,98904.72
2022-12-18T10:37:30.996Z,98908.23
2022-12-18T10:40:22.031Z,98907.43
2022-12-18T10:43:15.673Z,98903.52
2022-12-18T10:46:15.820Z,98909.69
2022-12-18T10:48:50.544Z,98910.54
2022-12-18T10:51:31.476Z,98913.42
2022-12-18T10:54:23.184Z,98913.90
2022-12-18T10:56:51.170Z,98917.48
2022-12-18T10:59:19.869Z,98918.54
2022-12-18T11:01:55.696Z,98917.48
2022-12-18T11:04:29.956Z,98914.94
2022-12-18T11:07:00.848Z,98917.25
2022-12-18T11:09:32.825Z,98918.30
2022-12-18T11:12:04.645Z,98917.92
2022-12-18T11:14:39.955Z,98919.98
2022-12-18T11:17:29.526Z,98923.64
2022-12-18T11:20:20.424Z,98924.42
2022-12-18T11:23:14.713Z,98922.67
2022-12-18T11:25:52.999Z,98921.09
2022-12-18T11:28:35.411Z,98922.52
2022-12-18T11:31:17.985Z,98920.63
2022-12-18T11:34:26.974Z,98924.73
2022-12-18T11:36:47.765Z,98926.45
2022-12-18T11:39:27.106Z,98923.42
2022-12-18T11:42:12.468Z,98924.23
2022-12-18T11:44:55.805Z,98926.65
2022-12-18T11:47:59.220Z,98925.82
2022-12-18T11:50:35.829Z,98927.92
2022-12-18T11:53:06.214Z,98928.71
2022-12-18T11:56:18.571Z,98931.23
2022-12-18T11:58:49.004Z,98934.19
2022-12-18T12:01:44.294Z,98935.15
2022-12-18T12:04:28.656Z,98933.05
2022-12-18T12:07:16.141Z,98933.91
2022-12-18T12:09:59.173Z,98933.62
2022-12-18T12:12:48.741Z,98938.84
2022-12-18T12:15:43.287Z,98935.02
2022-12-18T12:18:20.142Z,98939.90
2022-12-18T12:21:33.082Z,98940.70
2022-12-18T12:24:00.964Z,98928.70
2022-12-18T12:27:00.458Z,98928.10
2022-12-18T12:29:52.282Z,98932.92
2022-12-18T12:32:32.305Z,98936.64
2022-12-18T12:35:19.245Z,98935.55
2022-12-18T12:38:12.241Z,98932.70
2022-12-18T12:40:56.677Z,98937.78
2022-12-18T12:43:51.457Z,98940.64
2022-12-18T12:46:22.664Z,98945.38
2022-12-18T12:48:54.950Z,98946.55
2022-12-18T12:51:33.263Z,98953.30
2022-12-18T12:54:05.089Z,98959.18
2022-12-18T12:56:45.269Z,98964.40
2022-12-18T12:59:41.299Z,98967.96
2022-12-18T13:02:25.583Z,98971.79
2022-12-18T13:05:04.833Z,98975.28
2022-12-18T13:08:07.236Z,98972.88
2022-12-18T13:10:41.625Z,98974.08
2022-12-18T13:13:23.667Z,98980.58
2022-12-18T13:16:08.133Z,98983.77
2022-12-18T13:18:36.751Z,98985.59
2022-12-18T13:21:21.747Z,98987.73
2022-12-18T13:23:52.639Z,98993.36
2022-12-18T13:26:26.442Z,99000.09
2022-12-18T13:28:58.753Z,98998.42
2022-12-18T13:31:42.219Z,99001.10
2022-12-18T13:34:27.442Z,98999.68
2022-12-18T13:37:32.933Z,98997.83
2022-12-18T13:40:00.988Z,99000.86
2022-12-18T13:42:58.364Z,99002.16
2022-12-18T13:45:42.016Z,99003.05
2022-12-18T13:48:16.672Z,99004.65
2022-12-18T13:50:50.699Z,99001.77
2022-12-18T13:53:29.921Z,98999.37
2022-12-18T13:55:58.592Z,98998.02
2022-12-18T13:58:26.470Z,98999.16
2022-12-18T14:00:54.384Z,98997.41
2022-12-18T14:03:27.391Z,99000.45
2022-12-18T14:05:59.960Z,98998.92
2022-12-18T14:08:35.298Z,98999.95
2022-12-18T14:11:06.107Z,99000.50
2022-12-18T14:13:40.821Z,99007.13
2022-12-18T14:16:13.242Z,99012.09
2022-12-18T14:19:04.116Z,99013.52
2022-12-18T14:21:49.211Z,99014.98
2022-12-18T14:24:21.751Z,99017.30
2022-12-18T14:26:51.468Z,99019.41
2022-12-18T14:29:19.331Z,99017.65
2022-12-18T14:32:06.967Z,99017.30
2022-12-18T14:34:36.255Z,99026.46
2022-12-18T14:37:04.559Z,99031.34
2022-12-18T14:39:32.382Z,99032.41
2022-12-18T14:42:00.320Z,99038.34
2022-12-18T14:44:34.534Z,99045.60
2022-12-18T14:47:16.449Z,99051.27
2022-12-18T14:49:44.862Z,99055.73
2022-12-18T14:52:26.540Z,99058.85
2022-12-18T14:54:54.663Z,99065.42
2022-12-18T14:57:26.158Z,99070.02
2022-12-18T14:59:54.072Z,99075.48
2022-12-18T15:02:26.204Z,99077.07
2022-12-18T15:05:36.049Z,99077.89
2022-12-18T15:08:04.246Z,99085.58
2022-12-18T15:10:34.611Z,99086.64
2022-12-18T15:13:03.998Z,99089.14
2022-12-18T15:15:37.958Z,99096.14
2022-12-18T15:18:08.849Z,99099.29
2022-12-18T15:20:54.113Z,99100.30
2022-12-18T15:23:37.328Z,99098.89
2022-12-18T15:26:13.759Z,99101.96
2022-12-18T15:28:56.581Z,99108.69
2022-12-18T15:31:30.704Z,99113.83
2022-12-18T15:34:00.254Z,99121.21
2022-12-18T15:36:31.275Z,99118.83
2022-12-18T15:39:05.071Z,99121.66
2022-12-18T15:41:37.352Z,99127.73
2022-12-18T15:44:23.466Z,99130.56
2022-12-18T15:46:51.415Z,99129.39
2022-12-18T15:49:19.401Z,99134.50
2022-12-18T15:51:53.880Z,99135.63
2022-12-18T15:54:40.797Z,99132.73
2022-12-18T15:57:26.447Z,99132.69
2022-12-18T16:00:00.106Z,99133.80
2022-12-18T16:02:29.728Z,99136.68
2022-12-18T16:04:58.099Z,99134.27
2022-12-18T16:07:28.193Z,99138.38
2022-12-18T16:10:01.259Z,99137.17
2022-12-18T16:12:30.579Z,99144.66
2022-12-18T16:14:58.412Z,99149.27
2022-12-18T16:17:26.396Z,99148.42
2022-12-18T16:19:54.293Z,99154.48
2022-12-18T16:22:23.933Z,99158.63
2022-12-18T16:24:52.958Z,99154.01
2022-12-18T16:27:22.415Z,99159.15
2022-12-18T16:29:50.298Z,99163.10
2022-12-18T16:32:20.832Z,99163.13
2022-12-18T16:34:48.819Z,99161.08
2022-12-18T16:37:17.652Z,99167.96
2022-12-18T16:39:45.633Z,99167.84
2022-12-18T16:42:20.550Z,99169.33
2022-12-18T16:44:50.498Z,99171.09
2022-12-18T16:47:19.529Z,99170.23
2022-12-18T16:49:49.121Z,99173.94
2022-12-18T16:52:18.412Z,99175.94
2022-12-18T16:54:46.420Z,99178.29
2022-12-18T16:57:18.167Z,99183.51
2022-12-18T16:59:46.823Z,99185.02
2022-12-18T17:02:23.549Z,99182.65
2022-12-18T17:04:55.358Z,99182.55
2022-12-18T17:07:24.784Z,99188.11
2022-12-18T17:09:54.332Z,99188.48
2022-12-18T17:12:22.929Z,99192.05
2022-12-18T17:14:50.937Z,99195.98
2022-12-18T17:17:21.459Z,99204.83
2022-12-18T17:19:51.977Z,99206.70
2022-12-18T17:22:23.321Z,99207.72
2022-12-18T17:24:51.413Z,99211.41
2022-12-18T17:27:19.418Z,99216.90
2022-12-18T17:29:48.783Z,99212.82
2022-12-18T17:32:17.884Z,99211.51
2022-12-18T17:34:46.103Z,99212.61
2022-12-18T17:37:14.183Z,99215.39
2022-12-18T17:39:42.433Z,99219.44
2022-12-18T17:42:10.721Z,99221.55
2022-12-18T17:44:45.027Z,99224.26
2022-12-18T17:47:14.055Z,99225.91
2022-12-18T17:49:42.056Z,99225.55
2022-12-18T17:52:10.382Z,99229.65
2022-12-18T17:54:40.001Z,99230.27
2022-12-18T17:57:08.356Z,99231.66
2022-12-18T17:59:36.423Z,99232.64
2022-12-18T18:02:04.693Z,99233.79
2022-12-18T18:04:32.736Z,99232.60
2022-12-18T18:07:00.650Z,99235.70
2022-12-18T18:09:28.596Z,99236.89
2022-12-18T18:12:15.083Z,99242.13
2022-12-18T18:14:43.084Z,99246.02
2022-12-18T18:17:11.343Z,99246.10
2022-12-18T18:19:39.220Z,99253.30
2022-12-18T18:22:08.467Z,99253.35
2022-12-18T18:24:36.691Z,99253.23
2022-12-18T18:27:04.636Z,99257.41
2022-12-18T18:29:32.733Z,99262.15
2022-12-18T18:32:00.742Z,99261.16
2022-12-18T18:34:32.020Z,99266.17
2022-12-18T18:37:01.023Z,99264.07
2022-12-18T18:39:29.869Z,99258.26
2022-12-18T18:41:57.693Z,99253.64
2022-12-18T18:44:26.441Z,99255.88
2022-12-18T18:46:56.414Z,99259.98
2022-12-18T18:49:27.825Z,99266.26
2022-12-18T18:51:57.538Z,99265.60
2022-12-18T18:54:27.127Z,99262.21
2022-12-18T18:59:42.866Z,99261.59
2022-12-18T19:02:15.422Z,99264.46
2022-12-18T19:04:46.687Z,99267.36
2022-12-18T19:07:29.994Z,99267.17
2022-12-18T19:10:04.657Z,99262.69
2022-12-18T19:12:53.021Z,99265.84
2022-12-18T19:15:21.781Z,99268.95
2022-12-18T19:17:49.984Z,99275.83
2022-12-18T19:20:18.847Z,99277.63
2022-12-18T19:22:55.787Z,99282.20
2022-12-18T19:25:29.953Z,99282.75
2022-12-18T19:28:15.990Z,99284.48
2022-12-18T19:30:58.975Z,99285.90
2022-12-18T19:33:43.201Z,99284.61
2022-12-18T19:36:17.372Z,99282.17
2022-12-18T19:38:46.208Z,99285.16
2022-12-18T19:41:15.603Z,99285.35
2022-12-18T19:43:44.726Z,99288.59
2022-12-18T19:46:18.951Z,99284.98
2022-12-18T19:48:47.800Z,99284.80
2022-12-18T19:51:24.608Z,99286.73
2022-12-18T19:53:58.502Z,99289.16
2022-12-18T19:56:31.500Z,99295.91
2022-12-18T19:59:00.235Z,99301.17
2022-12-18T20:01:29.699Z,99298.34
2022-12-18T20:03:59.062Z,99294.73
2022-12-18T20:06:31.976Z,99293.16
2022-12-18T20:09:03.671Z,99285.02
2022-12-18T20:11:33.514Z,99281.63
2022-12-18T20:14:05.332Z,99283.39
2022-12-18T20:16:33.346Z,99289.23
2022-12-18T20:19:01.839Z,99289.64
2022-12-18T20:21:30.191Z,99291.55
2022-12-18T20:24:00.051Z,99291.02
2022-12-18T20:26:28.326Z,99295.00
2022-12-18T20:28:56.642Z,99296.56
2022-12-18T20:31:24.809Z,99297.77
2022-12-18T20:33:53.432Z,99303.31
2022-12-18T20:36:25.815Z,99301.97
2022-12-18T20:38:59.115Z,99304.06
2022-12-18T20:41:37.224Z,99306.20
2022-12-18T20:44:22.662Z,99301.95
2022-12-18T20:46:54.492Z,99302.80
2022-12-18T20:49:24.581Z,99303.64
2022-12-18T20:51:54.617Z,99301.30
2022-12-18T20:54:25.129Z,99300.81
2022-12-18T20:56:53.319Z,99307.26
2022-12-18T20:59:23.271Z,99312.33
2022-12-18T21:01:55.211Z,99312.86
2022-12-18T21:04:23.646Z,99307.95
2022-12-18T21:06:55.815Z,99307.73
2022-12-18T21:09:37.140Z,99306.72
2022-12-18T21:12:34.896Z,99309.17
2022-12-18T21:15:10.154Z,99309.48
2022-12-18T21:17:44.560Z,99313.22
2022-12-18T21:20:17.947Z,99316.02
2022-12-18T21:22:47.307Z,99318.27
2022-12-18T21:25:15.267Z,99317.00
2022-12-18T21:27:43.104Z,99322.66
2022-12-18T21:30:11.867Z,99328.15
2022-12-18T21:32:40.215Z,99335.42
2022-12-18T21:35:08.444Z,99339.30
2022-12-18T21:37:36.699Z,99340.16
2022-12-18T21:40:06.290Z,99346.20
2022-12-18T21:42:52.681Z,99347.66
2022-12-18T21:45:20.870Z,99349.02
2022-12-18T21:47:50.222Z,99351.73
2022-12-18T21:50:18.340Z,99348.70
2022-12-18T21:52:46.384Z,99352.55
2022-12-18T21:55:14.237Z,99354.33
2022-12-18T21:57:42.241Z,99351.23
2022-12-18T22:00:19.334Z,99358.64
2022-12-18T22:03:01.108Z,99357.66
2022-12-18T22:05:37.323Z,99358.72
2022-12-18T22:08:06.819Z,99360.31
2022-12-18T22:10:35.595Z,99347.67
2022-12-18T22:13:05.090Z,99342.98
2022-12-18T22:15:33.741Z,99339.71
2022-12-18T22:18:02.160Z,99343.77
2022-12-18T22:20:30.259Z,99344.08
2022-12-18T22:22:59.050Z,99353.82
2022-12-18T22:25:30.612Z,99352.48
2022-12-18T22:28:17.034Z,99352.48
2022-12-18T22:30:44.938Z,99354.41
2022-12-18T22:33:12.925Z,99355.61
2022-12-18T22:35:40.842Z,99358.61
2022-12-18T22:38:09.596Z,99357.27
2022-12-18T22:40:37.489Z,99359.27
2022-12-18T22:43:05.319Z,99361.70
2022-12-18T22:45:34.142Z,99355.02
2022-12-18T22:48:06.478Z,99352.15
2022-12-18T22:50:34.303Z,99345.70
2022-12-18T22:53:02.137Z,99347.05
2022-12-18T22:55:29.964Z,99346.32
2022-12-18T22:57:57.845Z,99348.33
2022-12-18T23:00:26.573Z,99348.63
2022-12-18T23:02:59.801Z,99352.08
2022-12-18T23:05:31.019Z,99356.46
2022-12-18T23:07:59.248Z,99356.84
2022-12-18T23:10:27.518Z,99350.63
2022-12-18T23:12:55.571Z,99349.10
2022-12-18T23:15:28.286Z,99349.02
2022-12-18T23:17:58.764Z,99345.36
2022-12-18T23:20:27.849Z,99345.28
2022-12-18T23:22:56.102Z,99347.55
2022-12-18T23:25:24.050Z,99348.46
2022-12-18T23:27:52.139Z,99353.66
2022-12-18T23:30:20.067Z,99363.56
2022-12-18T23:32:48.456Z,99370.37
2022-12-18T23:35:17.630Z,99369.70
2022-12-18T23:38:03.678Z,99366.20
2022-12-18T23:40:31.863Z,99362.89
2022-12-18T23:43:00.513Z,99366.96
2022-12-18T23:45:28.791Z,99368.20
2022-12-18T23:47:56.794Z,99366.63
2022-12-18T23:50:29.141Z,99369.64
2022-12-18T23:53:05.343Z,99369.38
2022-12-18T23:55:39.761Z,99370.48
2022-12-18T23:58:15.187Z,99374.41
